Terminal Aerodrome Forecast
Issued by NWS North Platte, NE

Home | Current Version | Previous Version | Text Only | Print | Product List | Glossary Off
Versions: 1 2 3 4 5 6 7 8 9 10 11 12 13 14 15 16 17 18

206
FTUS43 KLBF 252147 AAA
TAFVTN
TAF AMD
KVTN 252147Z 2522/2618 18012G18KT P6SM VCTS BKN050 BKN120CB
     FM252300 03012KT P6SM VCTS BKN050 BKN120CB
      TEMPO 2523/2603 VRB25G35KT 4SM TSRA
     FM260300 01012KT P6SM -TSRA BKN050 OVC100CB
     FM260600 36010KT P6SM -SHRA VCTS SCT030 OVC050CB
     FM261000 36012KT P6SM BKN015 OVC040
     FM261700 01012KT P6SM BKN035=

USA.gov is the U.S. government's official web portal to all federal, state and local government web resources and services.